Time;durP1;ratioP1;P1;durP2;ratioP2;P2;SDS_P1;SDS_P2;PMS_P1;PMS_P2;Temp;Humidity;BMP_temperature;BMP_pressure;BME280_temperature;BME280_humidity;BME280_pressure;Samples;Min_cycle;Max_cycle;Signal;HPM_P1;HPM_P2
2023/07/03 00:02:24;;;;;;;;;;;15.80;99.90;;;;;;5133560;28;19911;-41
2023/07/03 00:04:50;;;;;;;;;;;15.80;99.90;;;;;;5132775;28;19915;-43
2023/07/03 00:07:15;;;;;;;;;;;15.80;99.90;;;;;;5133650;28;19914;-40
2023/07/03 00:09:43;;;;;;;;;;;15.80;99.90;;;;;;5133563;28;19907;-41
2023/07/03 00:12:09;;;;;;;;;;;15.70;99.90;;;;;;5132951;28;19930;-41
2023/07/03 00:14:35;;;;;;;;;;;15.80;99.90;;;;;;5133587;28;20045;-40
2023/07/03 00:17:00;;;;;;;;;;;15.80;99.90;;;;;;5133406;28;20366;-41
2023/07/03 00:19:30;;;;;;;;;;;15.70;99.90;;;;;;5132897;28;19949;-40
2023/07/03 00:22:00;;;;;;;;;;;15.70;99.90;;;;;;5133351;28;19922;-48
2023/07/03 00:24:26;;;;;;;;;;;15.70;99.90;;;;;;5132786;28;19907;-46
2023/07/03 00:26:52;;;;;;;;;;;15.80;99.90;;;;;;5133348;28;20377;-43
2023/07/03 00:29:17;;;;;;;;;;;15.80;99.90;;;;;;5133307;28;19912;-40
2023/07/03 00:31:43;;;;;;;;;;;15.70;99.90;;;;;;5132595;28;20060;-41
2023/07/03 00:34:08;;;;;;;;;;;15.80;99.90;;;;;;5133523;28;19907;-41
2023/07/03 00:36:34;;;;;;;;;;;15.80;99.90;;;;;;5133414;28;20369;-42
2023/07/03 00:38:59;;;;;;;;;;;15.80;99.90;;;;;;5132253;28;19927;-40
2023/07/03 00:41:25;;;;;;;;;;;15.80;99.90;;;;;;5133457;28;19912;-41
2023/07/03 00:43:51;;;;;;;;;;;15.80;99.90;;;;;;5133250;28;19907;-40
2023/07/03 00:46:16;;;;;;;;;;;15.80;99.90;;;;;;5132557;28;20320;-41
2023/07/03 00:48:42;;;;;;;;;;;15.80;99.90;;;;;;5133244;28;20388;-42
2023/07/03 00:51:08;;;;;;;;;;;15.80;99.90;;;;;;5133294;28;19907;-47
2023/07/03 00:53:34;;;;;;;;;;;15.90;99.90;;;;;;5132446;28;19950;-42
2023/07/03 00:55:59;;;;;;;;;;;15.90;99.90;;;;;;5133181;28;20377;-45
2023/07/03 00:58:26;;;;;;;;;;;15.90;99.90;;;;;;5134858;27;19907;-41
2023/07/03 01:00:55;;;;;;;;;;;15.80;99.90;;;;;;5136128;27;19915;-41
2023/07/03 01:03:26;;;;;;;;;;;15.90;99.90;;;;;;5136921;27;20258;-41
2023/07/03 01:05:52;;;;;;;;;;;15.90;99.90;;;;;;5136517;27;19919;-44
2023/07/03 01:08:18;;;;;;;;;;;15.90;99.90;;;;;;5135735;27;20453;-44
2023/07/03 01:10:44;;;;;;;;;;;15.90;99.90;;;;;;5136193;27;19954;-45
2023/07/03 01:13:13;;;;;;;;;;;15.90;99.90;;;;;;5136523;27;19919;-46
2023/07/03 01:15:40;;;;;;;;;;;15.90;99.90;;;;;;5135575;27;20380;-42
2023/07/03 01:18:06;;;;;;;;;;;16.00;99.90;;;;;;5136452;27;19912;-41
2023/07/03 01:20:34;;;;;;;;;;;16.00;99.90;;;;;;5135140;27;20397;-42
2023/07/03 01:23:00;;;;;;;;;;;16.00;99.90;;;;;;5136263;27;19911;-43
2023/07/03 01:25:26;;;;;;;;;;;16.00;99.90;;;;;;5136382;27;19918;-40
2023/07/03 01:27:52;;;;;;;;;;;16.00;99.90;;;;;;5135671;27;19908;-41
2023/07/03 01:30:18;;;;;;;;;;;16.00;99.90;;;;;;5136576;27;19917;-40
2023/07/03 01:32:45;;;;;;;;;;;16.00;99.90;;;;;;5135613;27;19911;-40
2023/07/03 01:35:11;;;;;;;;;;;16.00;99.90;;;;;;5124227;27;20369;-40
2023/07/03 01:37:39;;;;;;;;;;;16.00;99.90;;;;;;5136340;27;20019;-41
2023/07/03 01:40:06;;;;;;;;;;;16.00;99.90;;;;;;5135691;27;19926;-43
2023/07/03 01:42:35;;;;;;;;;;;16.00;99.90;;;;;;5135472;27;19979;-42
2023/07/03 01:45:01;;;;;;;;;;;16.00;99.90;;;;;;5136157;27;19907;-41
2023/07/03 01:47:27;;;;;;;;;;;16.00;99.90;;;;;;5136191;27;19952;-42
2023/07/03 01:49:52;;;;;;;;;;;16.10;99.90;;;;;;5135401;27;19911;-41
2023/07/03 01:52:27;;;;;;;;;;;16.10;99.90;;;;;;5135990;27;19934;-43
2023/07/03 01:55:02;;;;;;;;;;;16.10;99.90;;;;;;5135954;27;19984;-40
2023/07/03 01:57:41;;;;;;;;;;;16.10;99.90;;;;;;5135271;27;20385;-42
2023/07/03 02:00:10;;;;;;;;;;;16.10;99.90;;;;;;5135861;27;19962;-40
2023/07/03 02:02:36;;;;;;;;;;;16.10;99.90;;;;;;5135873;27;19907;-41
2023/07/03 02:05:10;;;;;;;;;;;16.10;99.90;;;;;;5135163;27;19942;-40
2023/07/03 02:07:35;;;;;;;;;;;16.10;99.90;;;;;;5135449;27;20358;-41
2023/07/03 02:10:02;;;;;;;;;;;16.20;99.90;;;;;;5134149;27;20042;-42
2023/07/03 02:12:28;;;;;;;;;;;16.10;99.90;;;;;;5135838;27;19980;-42
2023/07/03 02:14:54;;;;;;;;;;;16.10;99.90;;;;;;5135554;27;20357;-43
2023/07/03 02:17:19;;;;;;;;;;;16.10;99.90;;;;;;5134745;27;20372;-42
2023/07/03 02:19:45;;;;;;;;;;;16.10;99.90;;;;;;5135354;27;20313;-42
2023/07/03 02:22:10;;;;;;;;;;;16.10;99.90;;;;;;5135475;27;20354;-41
2023/07/03 02:24:36;;;;;;;;;;;16.10;99.90;;;;;;5134712;27;19908;-42
2023/07/03 02:27:01;;;;;;;;;;;16.10;99.90;;;;;;5135069;27;19914;-40
2023/07/03 02:29:27;;;;;;;;;;;16.10;99.90;;;;;;5135355;27;19959;-41
2023/07/03 02:31:52;;;;;;;;;;;16.10;99.90;;;;;;5134450;27;19907;-42
2023/07/03 02:34:20;;;;;;;;;;;16.10;99.90;;;;;;5135042;27;19911;-42
2023/07/03 02:36:47;;;;;;;;;;;16.10;99.90;;;;;;5135022;27;19907;-41
2023/07/03 02:39:12;;;;;;;;;;;16.10;99.90;;;;;;5134016;27;19920;-41
2023/07/03 02:41:38;;;;;;;;;;;16.10;99.90;;;;;;5135041;27;19915;-40
2023/07/03 02:44:03;;;;;;;;;;;16.00;99.90;;;;;;5134946;27;20286;-40
2023/07/03 02:46:29;;;;;;;;;;;16.10;99.90;;;;;;5134267;27;19907;-41
2023/07/03 02:48:54;;;;;;;;;;;16.10;99.90;;;;;;5134874;27;19943;-41
2023/07/03 02:51:20;;;;;;;;;;;16.00;99.90;;;;;;5134795;27;20324;-41
2023/07/03 02:53:45;;;;;;;;;;;16.00;99.90;;;;;;5115551;27;19907;-41
2023/07/03 02:56:11;;;;;;;;;;;16.00;99.90;;;;;;5134865;27;19907;-41
2023/07/03 02:58:36;;;;;;;;;;;16.00;99.90;;;;;;5134701;27;19907;-41
2023/07/03 03:01:02;;;;;;;;;;;16.00;99.90;;;;;;5133832;27;19946;-42
2023/07/03 03:03:28;;;;;;;;;;;16.00;99.90;;;;;;5134509;27;19911;-41
2023/07/03 03:05:57;;;;;;;;;;;16.00;99.90;;;;;;5134577;27;19930;-43
2023/07/03 03:08:23;;;;;;;;;;;16.00;99.90;;;;;;5134638;27;19930;-43
2023/07/03 03:10:49;;;;;;;;;;;16.10;99.90;;;;;;5134491;27;20349;-43
2023/07/03 03:13:15;;;;;;;;;;;16.00;99.90;;;;;;5133812;27;19952;-41
2023/07/03 03:15:40;;;;;;;;;;;16.00;99.90;;;;;;5134435;27;19911;-42
2023/07/03 03:18:06;;;;;;;;;;;16.00;99.90;;;;;;5134252;27;19914;-41
2023/07/03 03:20:31;;;;;;;;;;;15.90;99.90;;;;;;5133801;27;19915;-46
2023/07/03 03:22:57;;;;;;;;;;;16.00;99.90;;;;;;5133246;27;20411;-41
2023/07/03 03:25:23;;;;;;;;;;;15.90;99.90;;;;;;5134367;27;19908;-40
2023/07/03 03:27:48;;;;;;;;;;;16.00;99.90;;;;;;5133312;27;20441;-40
2023/07/03 03:30:14;;;;;;;;;;;16.00;99.90;;;;;;5134246;27;19919;-41
2023/07/03 03:32:39;;;;;;;;;;;15.90;99.90;;;;;;5133971;27;19907;-41
2023/07/03 03:35:05;;;;;;;;;;;15.90;99.90;;;;;;5133584;27;20034;-41
2023/07/03 03:37:31;;;;;;;;;;;15.80;99.90;;;;;;5134051;27;19907;-42
2023/07/03 03:39:56;;;;;;;;;;;15.80;99.90;;;;;;5133341;27;19919;-41
2023/07/03 03:42:22;;;;;;;;;;;15.80;99.90;;;;;;5132992;27;19911;-45
2023/07/03 03:44:47;;;;;;;;;;;15.70;99.90;;;;;;5133395;27;20434;-41
2023/07/03 03:47:13;;;;;;;;;;;15.70;99.90;;;;;;5133683;27;19919;-42
2023/07/03 03:49:39;;;;;;;;;;;15.60;99.90;;;;;;5132850;27;20006;-43
2023/07/03 03:52:05;;;;;;;;;;;15.50;99.90;;;;;;5133401;27;20013;-42
2023/07/03 03:54:30;;;;;;;;;;;15.40;99.90;;;;;;5133709;27;20376;-40
2023/07/03 03:56:56;;;;;;;;;;;15.40;99.90;;;;;;5132936;27;19907;-42
2023/07/03 03:59:21;;;;;;;;;;;15.30;99.90;;;;;;5133655;27;20377;-45
2023/07/03 04:01:50;;;;;;;;;;;15.30;99.90;;;;;;5133737;27;19914;-42
2023/07/03 04:04:16;;;;;;;;;;;15.30;99.90;;;;;;5133027;28;19942;-40
2023/07/03 04:06:43;;;;;;;;;;;15.20;99.90;;;;;;5133647;28;19942;-46
2023/07/03 04:09:09;;;;;;;;;;;15.30;99.90;;;;;;5133784;28;19907;-41
2023/07/03 04:11:34;;;;;;;;;;;15.20;99.90;;;;;;5132840;28;19907;-40
2023/07/03 04:14:00;;;;;;;;;;;15.20;99.90;;;;;;5133550;28;19908;-41
2023/07/03 04:16:26;;;;;;;;;;;15.20;99.90;;;;;;5132820;28;19908;-42
2023/07/03 04:18:52;;;;;;;;;;;15.10;99.90;;;;;;5133689;28;19952;-39
2023/07/03 04:21:17;;;;;;;;;;;15.20;99.90;;;;;;5133287;28;19923;-41
2023/07/03 04:23:43;;;;;;;;;;;15.10;99.90;;;;;;5132479;28;20283;-40
2023/07/03 04:26:08;;;;;;;;;;;15.10;99.90;;;;;;5133491;28;19911;-42
2023/07/03 04:28:34;;;;;;;;;;;15.10;99.90;;;;;;5133499;28;19908;-43
2023/07/03 04:30:59;;;;;;;;;;;15.10;99.90;;;;;;5132640;28;20319;-41
2023/07/03 04:33:25;;;;;;;;;;;15.10;99.90;;;;;;5135095;27;20522;-42
2023/07/03 04:35:50;;;;;;;;;;;15.00;99.90;;;;;;5137446;27;19914;-42
2023/07/03 04:38:17;;;;;;;;;;;15.10;99.90;;;;;;5136746;27;20370;-40
2023/07/03 04:40:43;;;;;;;;;;;15.10;99.90;;;;;;5137046;27;20384;-42
2023/07/03 04:43:08;;;;;;;;;;;15.10;99.90;;;;;;5137408;27;19911;-42
2023/07/03 04:45:38;;;;;;;;;;;15.10;99.90;;;;;;5136531;27;20349;-40
2023/07/03 04:48:04;;;;;;;;;;;15.10;99.90;;;;;;5137315;27;20332;-40
2023/07/03 04:50:31;;;;;;;;;;;15.20;99.90;;;;;;5137208;27;20001;-44
2023/07/03 04:52:57;;;;;;;;;;;15.20;99.90;;;;;;5136492;27;19960;-41
2023/07/03 04:55:22;;;;;;;;;;;15.20;99.90;;;;;;5136655;27;19915;-41
2023/07/03 04:57:48;;;;;;;;;;;15.20;99.90;;;;;;5136763;27;19915;-40
2023/07/03 05:00:16;;;;;;;;;;;15.20;99.90;;;;;;5135793;27;19923;-40
2023/07/03 05:02:42;;;;;;;;;;;15.20;99.90;;;;;;5136828;27;19912;-41
2023/07/03 05:05:10;;;;;;;;;;;15.20;99.90;;;;;;5137074;27;20027;-45
2023/07/03 05:07:36;;;;;;;;;;;15.30;99.90;;;;;;5136082;27;19911;-44
2023/07/03 05:10:01;;;;;;;;;;;15.30;99.90;;;;;;5135856;27;19911;-45
2023/07/03 05:12:27;;;;;;;;;;;15.40;99.90;;;;;;5136679;27;20412;-43
2023/07/03 05:14:52;;;;;;;;;;;15.40;99.90;;;;;;5135981;27;19907;-43
2023/07/03 05:17:19;;;;;;;;;;;15.50;99.90;;;;;;5136660;27;20388;-40
2023/07/03 05:19:44;;;;;;;;;;;15.50;99.90;;;;;;5135821;27;19911;-40
2023/07/03 05:22:10;;;;;;;;;;;15.50;99.90;;;;;;5136705;27;19967;-40
2023/07/03 05:24:35;;;;;;;;;;;15.50;99.90;;;;;;5136657;27;20389;-41
2023/07/03 05:27:01;;;;;;;;;;;15.50;99.90;;;;;;5135728;27;20419;-41
2023/07/03 05:29:26;;;;;;;;;;;15.60;99.90;;;;;;5136343;27;19908;-42
2023/07/03 05:31:51;;;;;;;;;;;15.60;99.90;;;;;;5130688;27;19918;-46
2023/07/03 05:34:17;;;;;;;;;;;15.50;99.90;;;;;;5134740;27;19935;-42
2023/07/03 05:36:43;;;;;;;;;;;15.60;99.90;;;;;;5127257;27;19918;-43
2023/07/03 05:39:08;;;;;;;;;;;15.60;99.90;;;;;;5115453;27;20259;-42
2023/07/03 05:41:34;;;;;;;;;;;15.60;99.90;;;;;;5115015;28;20251;-41
2023/07/03 05:43:59;;;;;;;;;;;15.70;99.90;;;;;;5115286;28;19931;-42
2023/07/03 05:46:25;;;;;;;;;;;15.70;99.90;;;;;;5114972;28;20120;-42
2023/07/03 05:48:50;;;;;;;;;;;15.80;99.90;;;;;;5114746;28;20366;-40
2023/07/03 05:51:16;;;;;;;;;;;15.90;99.90;;;;;;5115446;28;19917;-41
2023/07/03 05:53:41;;;;;;;;;;;16.00;99.90;;;;;;5115475;28;19994;-42
2023/07/03 05:56:07;;;;;;;;;;;16.00;99.90;;;;;;5126094;27;20386;-41
2023/07/03 05:58:32;;;;;;;;;;;16.00;99.90;;;;;;5132042;27;19916;-41
2023/07/03 06:00:59;;;;;;;;;;;16.10;99.90;;;;;;5121774;27;19928;-43
2023/07/03 06:03:24;;;;;;;;;;;16.20;99.90;;;;;;5129465;27;20316;-41
2023/07/03 06:05:51;;;;;;;;;;;16.30;99.90;;;;;;5117212;27;19961;-43
2023/07/03 06:08:16;;;;;;;;;;;16.40;99.90;;;;;;5135822;27;19908;-40
2023/07/03 06:10:42;;;;;;;;;;;16.50;99.90;;;;;;5134783;27;19953;-40
2023/07/03 06:13:07;;;;;;;;;;;16.50;99.90;;;;;;5133294;27;19908;-42
2023/07/03 06:15:35;;;;;;;;;;;16.50;99.90;;;;;;5115081;28;19961;-41
2023/07/03 06:18:02;;;;;;;;;;;16.50;99.90;;;;;;5114174;28;19911;-41
2023/07/03 06:20:28;;;;;;;;;;;16.70;99.90;;;;;;5119242;27;19921;-40
2023/07/03 06:22:54;;;;;;;;;;;16.80;99.90;;;;;;5133511;27;19994;-43
2023/07/03 06:25:19;;;;;;;;;;;16.90;99.90;;;;;;5134775;27;19908;-41
2023/07/03 06:27:45;;;;;;;;;;;17.00;99.90;;;;;;5134871;27;19908;-41
2023/07/03 06:30:11;;;;;;;;;;;17.10;99.90;;;;;;5133491;27;19911;-42
2023/07/03 06:32:36;;;;;;;;;;;17.10;99.90;;;;;;5134629;27;19916;-41
2023/07/03 06:35:02;;;;;;;;;;;17.10;99.90;;;;;;5134524;27;20377;-42
2023/07/03 06:37:27;;;;;;;;;;;17.00;99.90;;;;;;5133357;27;19968;-41
2023/07/03 06:39:53;;;;;;;;;;;16.90;99.90;;;;;;5133936;27;19923;-41
2023/07/03 06:42:18;;;;;;;;;;;17.00;99.90;;;;;;5131542;27;19920;-42
2023/07/03 06:44:44;;;;;;;;;;;17.00;99.90;;;;;;5129067;27;19919;-40
2023/07/03 06:47:10;;;;;;;;;;;17.10;99.90;;;;;;5131826;27;20373;-41
2023/07/03 06:49:35;;;;;;;;;;;17.20;99.90;;;;;;5127589;27;19964;-42
2023/07/03 06:52:01;;;;;;;;;;;17.30;99.90;;;;;;5131088;27;19912;-42
2023/07/03 06:54:26;;;;;;;;;;;17.50;99.90;;;;;;5127327;27;19911;-45
2023/07/03 06:56:52;;;;;;;;;;;17.60;99.90;;;;;;5132554;27;19922;-43
2023/07/03 06:59:17;;;;;;;;;;;17.60;99.90;;;;;;5131604;27;19912;-41
2023/07/03 07:01:43;;;;;;;;;;;17.50;99.90;;;;;;5133621;27;19912;-42
2023/07/03 07:04:09;;;;;;;;;;;17.50;99.90;;;;;;5129859;27;19919;-44
2023/07/03 07:06:34;;;;;;;;;;;17.50;99.90;;;;;;5124718;27;19918;-43
2023/07/03 07:09:00;;;;;;;;;;;17.40;99.90;;;;;;5132857;27;19918;-45
2023/07/03 07:11:27;;;;;;;;;;;17.40;99.90;;;;;;5133760;27;19911;-41
2023/07/03 07:13:53;;;;;;;;;;;17.50;99.90;;;;;;5133124;27;19953;-40
2023/07/03 07:16:20;;;;;;;;;;;17.50;99.90;;;;;;5133793;27;19959;-41
2023/07/03 07:18:47;;;;;;;;;;;17.50;99.90;;;;;;5130960;27;19911;-43
2023/07/03 07:21:12;;;;;;;;;;;17.50;99.90;;;;;;5132296;27;19923;-43
2023/07/03 07:23:38;;;;;;;;;;;17.40;99.90;;;;;;5132135;27;20273;-40
2023/07/03 07:26:03;;;;;;;;;;;17.40;99.90;;;;;;5126050;27;19915;-44
2023/07/03 07:28:29;;;;;;;;;;;17.50;99.90;;;;;;5122110;27;20085;-41
2023/07/03 07:30:55;;;;;;;;;;;17.60;99.90;;;;;;5128505;27;19912;-44
2023/07/03 07:33:22;;;;;;;;;;;17.60;99.90;;;;;;5124005;27;19911;-43
2023/07/03 07:35:48;;;;;;;;;;;17.60;99.90;;;;;;5128645;27;19918;-43
2023/07/03 07:38:13;;;;;;;;;;;17.60;99.90;;;;;;5126895;27;19911;-42
2023/07/03 07:40:39;;;;;;;;;;;17.70;99.90;;;;;;5130074;27;20010;-41
2023/07/03 07:43:05;;;;;;;;;;;17.80;99.90;;;;;;5133707;27;19907;-41
2023/07/03 07:45:31;;;;;;;;;;;18.00;99.90;;;;;;5121150;27;19912;-40
2023/07/03 07:47:57;;;;;;;;;;;18.20;99.90;;;;;;5127765;27;19918;-41
2023/07/03 07:50:23;;;;;;;;;;;18.40;99.90;;;;;;5127585;27;19970;-46
2023/07/03 07:52:49;;;;;;;;;;;18.70;99.90;;;;;;5125069;27;20392;-40
2023/07/03 07:55:15;;;;;;;;;;;18.80;99.90;;;;;;5125427;27;19938;-43
2023/07/03 07:57:40;;;;;;;;;;;18.80;99.90;;;;;;5130936;27;20361;-41
2023/07/03 08:00:06;;;;;;;;;;;18.70;99.90;;;;;;5132024;27;20052;-43
2023/07/03 08:02:32;;;;;;;;;;;18.60;98.60;;;;;;5131821;27;20283;-41
2023/07/03 08:04:58;;;;;;;;;;;18.40;99.60;;;;;;5133199;28;19911;-41
2023/07/03 08:07:23;;;;;;;;;;;18.40;99.90;;;;;;5120212;27;20204;-44
2023/07/03 08:09:49;;;;;;;;;;;18.30;99.90;;;;;;5138075;27;19916;-41
2023/07/03 08:12:14;;;;;;;;;;;18.30;99.90;;;;;;5138759;27;19914;-43
2023/07/03 08:14:40;;;;;;;;;;;18.30;99.90;;;;;;5139040;27;19995;-42
2023/07/03 08:17:05;;;;;;;;;;;18.20;99.90;;;;;;5127240;27;20559;-42
2023/07/03 08:19:31;;;;;;;;;;;18.20;99.90;;;;;;5121261;27;19912;-42
2023/07/03 08:21:56;;;;;;;;;;;18.10;99.90;;;;;;5119719;28;19912;-43
2023/07/03 08:24:22;;;;;;;;;;;18.00;99.90;;;;;;5124652;27;19911;-43
2023/07/03 08:26:49;;;;;;;;;;;18.00;99.90;;;;;;5140312;27;19928;-43
2023/07/03 08:29:15;;;;;;;;;;;17.90;99.90;;;;;;5140275;27;19911;-44
2023/07/03 08:31:40;;;;;;;;;;;17.90;99.90;;;;;;5139597;27;19913;-45
2023/07/03 08:34:07;;;;;;;;;;;17.80;99.90;;;;;;5140088;27;19915;-45
2023/07/03 08:36:32;;;;;;;;;;;17.80;99.90;;;;;;5139457;27;19907;-43
2023/07/03 08:38:59;;;;;;;;;;;17.70;99.90;;;;;;5139990;27;20056;-42
2023/07/03 08:41:24;;;;;;;;;;;17.80;99.90;;;;;;5140180;27;19960;-43
2023/07/03 08:43:51;;;;;;;;;;;17.80;99.90;;;;;;5139435;27;20421;-42
2023/07/03 08:46:19;;;;;;;;;;;17.90;99.90;;;;;;5139518;27;19911;-43
2023/07/03 08:48:45;;;;;;;;;;;18.00;99.90;;;;;;5139915;27;19912;-43
2023/07/03 08:51:14;;;;;;;;;;;18.00;99.90;;;;;;5139376;27;19908;-44
2023/07/03 08:53:41;;;;;;;;;;;18.00;99.90;;;;;;5140004;27;19907;-42
2023/07/03 08:56:17;;;;;;;;;;;17.90;99.90;;;;;;5140070;27;20292;-44
2023/07/03 08:58:46;;;;;;;;;;;17.90;99.90;;;;;;5139266;27;19908;-44
2023/07/03 09:01:21;;;;;;;;;;;17.80;99.90;;;;;;5139609;27;19934;-41
2023/07/03 09:03:53;;;;;;;;;;;17.70;99.90;;;;;;5139235;27;19918;-43
2023/07/03 09:06:22;;;;;;;;;;;17.60;99.90;;;;;;5139245;27;19917;-44
2023/07/03 09:08:48;;;;;;;;;;;17.40;99.90;;;;;;5140022;27;19990;-42
2023/07/03 09:11:15;;;;;;;;;;;17.20;99.90;;;;;;5140011;27;19946;-43
2023/07/03 09:13:43;;;;;;;;;;;17.00;99.90;;;;;;5139211;27;19975;-42
2023/07/03 09:16:09;;;;;;;;;;;16.80;99.90;;;;;;5139631;27;19966;-42
2023/07/03 09:18:38;;;;;;;;;;;16.60;99.90;;;;;;5134387;27;20358;-45
2023/07/03 09:21:03;;;;;;;;;;;16.50;99.90;;;;;;5135846;27;20344;-42
2023/07/03 09:23:33;;;;;;;;;;;16.40;99.90;;;;;;5136669;27;20399;-43
2023/07/03 09:26:04;;;;;;;;;;;16.20;99.90;;;;;;5135642;27;19908;-44
2023/07/03 09:28:32;;;;;;;;;;;16.10;99.90;;;;;;5136598;27;19952;-44
2023/07/03 09:30:58;;;;;;;;;;;16.10;99.90;;;;;;5136394;27;19919;-43
2023/07/03 09:33:24;;;;;;;;;;;16.20;99.90;;;;;;5135637;27;19907;-45
2023/07/03 09:35:49;;;;;;;;;;;16.20;99.90;;;;;;5136208;27;19911;-42
2023/07/03 09:38:16;;;;;;;;;;;16.20;99.90;;;;;;5136324;27;19908;-43
2023/07/03 09:40:44;;;;;;;;;;;16.30;99.90;;;;;;5135023;27;19920;-42
2023/07/03 09:43:13;;;;;;;;;;;16.20;99.90;;;;;;5136256;27;20307;-45
2023/07/03 09:45:39;;;;;;;;;;;16.20;99.90;;;;;;5135747;27;20374;-42
2023/07/03 09:48:10;;;;;;;;;;;16.20;99.90;;;;;;5135349;27;19918;-44
2023/07/03 09:50:38;;;;;;;;;;;16.40;99.90;;;;;;5136120;27;19907;-46
2023/07/03 09:53:04;;;;;;;;;;;16.80;99.90;;;;;;5136070;27;19911;-45
2023/07/03 09:55:30;;;;;;;;;;;17.00;99.90;;;;;;5135067;27;20385;-45
2023/07/03 09:57:55;;;;;;;;;;;17.00;99.90;;;;;;5135779;27;19908;-43
2023/07/03 10:00:22;;;;;;;;;;;17.20;99.90;;;;;;5135966;27;20034;-43
2023/07/03 10:02:54;;;;;;;;;;;17.20;99.90;;;;;;5135293;27;19907;-44
2023/07/03 10:05:29;;;;;;;;;;;17.20;99.90;;;;;;5135876;27;19960;-45
2023/07/03 10:07:55;;;;;;;;;;;17.30;99.90;;;;;;5135747;27;19907;-45
2023/07/03 10:10:22;;;;;;;;;;;17.50;99.90;;;;;;5135435;27;19908;-44
2023/07/03 10:12:50;;;;;;;;;;;17.80;99.90;;;;;;5135572;27;19994;-46
2023/07/03 10:15:19;;;;;;;;;;;18.30;99.90;;;;;;5134672;27;19939;-42
2023/07/03 10:18:02;;;;;;;;;;;18.60;99.90;;;;;;5135527;27;20282;-40
2023/07/03 10:20:41;;;;;;;;;;;18.80;99.90;;;;;;5127206;27;20014;-41
2023/07/03 10:23:08;;;;;;;;;;;19.10;98.90;;;;;;5122874;27;19912;-40
2023/07/03 10:25:36;;;;;;;;;;;19.40;98.90;;;;;;5130399;27;19907;-43
2023/07/03 10:28:08;;;;;;;;;;;19.50;98.90;;;;;;5116105;27;19908;-42
2023/07/03 10:30:35;;;;;;;;;;;19.70;99.30;;;;;;5152825;27;19946;-43
2023/07/03 10:33:03;;;;;;;;;;;19.80;95.60;;;;;;5138706;27;19908;-44
2023/07/03 10:35:30;;;;;;;;;;;19.80;96.70;;;;;;5135218;27;19951;-43
2023/07/03 10:38:01;;;;;;;;;;;19.70;96.80;;;;;;5134392;27;20623;-42
2023/07/03 10:40:36;;;;;;;;;;;19.50;97.60;;;;;;5134867;27;19924;-43
2023/07/03 10:43:03;;;;;;;;;;;19.40;97.80;;;;;;5135106;27;19915;-42
2023/07/03 10:45:30;;;;;;;;;;;19.50;98.90;;;;;;5133928;27;20357;-41
2023/07/03 10:47:58;;;;;;;;;;;19.50;97.30;;;;;;5121242;27;20468;-41
2023/07/03 10:50:50;;;;;;;;;;;19.40;98.60;;;;;;5117688;27;19942;-41
2023/07/03 10:53:19;;;;;;;;;;;19.20;97.50;;;;;;5116798;27;19918;-41
2023/07/03 10:56:23;;;;;;;;;;;19.20;96.90;;;;;;5125855;27;20049;-44
2023/07/03 10:58:48;;;;;;;;;;;19.20;97.20;;;;;;5051903;28;20018;-41
2023/07/03 11:01:25;;;;;;;;;;;19.20;98.90;;;;;;5066926;28;20450;-41
2023/07/03 11:03:56;;;;;;;;;;;19.20;99.50;;;;;;5090061;27;19957;-42
2023/07/03 11:06:40;;;;;;;;;;;19.40;99.60;;;;;;5124092;27;19950;-42
2023/07/03 11:09:06;;;;;;;;;;;19.80;98.90;;;;;;5113882;28;19965;-40
2023/07/03 11:11:38;;;;;;;;;;;20.10;98.30;;;;;;5113239;28;19916;-40
2023/07/03 11:14:19;;;;;;;;;;;20.10;96.90;;;;;;5114115;28;19931;-41
2023/07/03 11:16:54;;;;;;;;;;;20.00;94.20;;;;;;5113853;28;20010;-42
2023/07/03 11:19:22;;;;;;;;;;;19.90;94.50;;;;;;5113049;28;19912;-44
2023/07/03 11:21:51;;;;;;;;;;;19.80;94.90;;;;;;5112938;28;19965;-42
2023/07/03 11:24:25;;;;;;;;;;;19.70;95.70;;;;;;5111134;28;19908;-43
2023/07/03 11:27:10;;;;;;;;;;;19.50;94.40;;;;;;5112904;28;19907;-40
2023/07/03 11:29:36;;;;;;;;;;;19.20;92.50;;;;;;5113647;28;20423;-41
2023/07/03 11:32:03;;;;;;;;;;;18.90;95.00;;;;;;5123312;27;19915;-41
2023/07/03 11:34:29;;;;;;;;;;;18.70;94.70;;;;;;5123278;27;20335;-40
2023/07/03 11:36:55;;;;;;;;;;;18.60;95.70;;;;;;5132902;27;19912;-40
2023/07/03 11:39:23;;;;;;;;;;;18.60;95.90;;;;;;5133670;27;20038;-44
2023/07/03 11:41:52;;;;;;;;;;;18.50;96.10;;;;;;5133672;27;19947;-40
2023/07/03 11:44:19;;;;;;;;;;;18.50;96.80;;;;;;5133358;27;19907;-41
2023/07/03 11:46:50;;;;;;;;;;;18.60;96.70;;;;;;5133065;27;20762;-40
2023/07/03 11:49:16;;;;;;;;;;;18.80;97.10;;;;;;5133991;27;19980;-42
2023/07/03 11:51:42;;;;;;;;;;;19.10;97.40;;;;;;5133769;27;19962;-42
2023/07/03 11:54:19;;;;;;;;;;;19.30;96.90;;;;;;5133145;27;19915;-41
2023/07/03 11:56:46;;;;;;;;;;;19.60;97.10;;;;;;5133693;27;19907;-42
2023/07/03 11:59:24;;;;;;;;;;;19.90;96.00;;;;;;5133893;27;19908;-40
2023/07/03 12:01:51;;;;;;;;;;;20.00;95.60;;;;;;5132884;27;19926;-45
2023/07/03 12:04:43;;;;;;;;;;;20.10;93.80;;;;;;5133167;27;19950;-41
2023/07/03 12:07:09;;;;;;;;;;;20.40;93.80;;;;;;5129021;28;20262;-45
2023/07/03 12:09:34;;;;;;;;;;;20.60;92.80;;;;;;5132920;28;19914;-43
2023/07/03 12:12:00;;;;;;;;;;;20.70;94.90;;;;;;5133540;28;19915;-43
2023/07/03 12:15:14;;;;;;;;;;;21.00;93.60;;;;;;5132507;28;20482;-43
2023/07/03 12:17:34;;;;;;;;;;;21.20;93.40;;;;;;5130266;28;19912;-41
2023/07/03 12:20:06;;;;;;;;;;;21.50;93.70;;;;;;5132276;28;19915;-43
2023/07/03 12:22:35;;;;;;;;;;;21.30;93.70;;;;;;5128978;27;19911;-40
2023/07/03 12:25:02;;;;;;;;;;;20.90;92.20;;;;;;5127930;28;19962;-42
2023/07/03 12:27:28;;;;;;;;;;;20.50;92.80;;;;;;5133385;28;19907;-40
2023/07/03 12:29:54;;;;;;;;;;;20.20;93.60;;;;;;5132565;28;19967;-42
2023/07/03 12:32:27;;;;;;;;;;;20.10;94.00;;;;;;5127916;28;19954;-40
2023/07/03 12:34:52;;;;;;;;;;;20.00;94.30;;;;;;5122702;27;19958;-39
2023/07/03 12:37:20;;;;;;;;;;;19.90;93.60;;;;;;5120933;28;20330;-40
2023/07/03 12:39:47;;;;;;;;;;;19.80;93.10;;;;;;5112202;28;19920;-41
2023/07/03 12:42:17;;;;;;;;;;;19.70;93.00;;;;;;5119224;28;19912;-44
2023/07/03 12:44:43;;;;;;;;;;;19.50;94.10;;;;;;5114470;28;19915;-40
2023/07/03 12:47:10;;;;;;;;;;;19.40;94.60;;;;;;5126316;28;20002;-42
2023/07/03 12:50:05;;;;;;;;;;;19.40;94.00;;;;;;5133280;28;19907;-43
2023/07/03 12:52:31;;;;;;;;;;;19.40;94.00;;;;;;5119901;28;19983;-40
2023/07/03 12:54:58;;;;;;;;;;;19.40;92.90;;;;;;5129027;27;19907;-43
2023/07/03 12:57:24;;;;;;;;;;;19.30;92.40;;;;;;5115789;28;19911;-42
2023/07/03 12:59:52;;;;;;;;;;;19.30;93.20;;;;;;5116291;28;20083;-41
2023/07/03 13:02:20;;;;;;;;;;;19.20;92.70;;;;;;5121600;27;19912;-45
2023/07/03 13:04:51;;;;;;;;;;;19.10;93.40;;;;;;5115509;28;19911;-39
2023/07/03 13:07:18;;;;;;;;;;;19.00;94.60;;;;;;5116377;28;19914;-41
2023/07/03 13:09:43;;;;;;;;;;;18.90;92.90;;;;;;5116142;28;19908;-42
2023/07/03 13:12:19;;;;;;;;;;;18.70;94.30;;;;;;5127666;27;19908;-41
2023/07/03 13:15:06;;;;;;;;;;;18.60;94.30;;;;;;5132229;27;19912;-39
2023/07/03 13:17:32;;;;;;;;;;;18.60;93.80;;;;;;5133122;27;19911;-42
2023/07/03 13:20:19;;;;;;;;;;;18.80;93.70;;;;;;5133957;27;20392;-41
2023/07/03 13:22:49;;;;;;;;;;;19.00;93.50;;;;;;5135003;27;19934;-43
2023/07/03 13:25:24;;;;;;;;;;;19.20;93.80;;;;;;5131566;27;20048;-44
2023/07/03 13:27:50;;;;;;;;;;;19.50;94.00;;;;;;5134670;27;19915;-41
2023/07/03 13:30:27;;;;;;;;;;;19.60;93.20;;;;;;5135019;27;19934;-41
2023/07/03 13:32:52;;;;;;;;;;;19.50;92.70;;;;;;5131187;27;20008;-43
2023/07/03 13:35:25;;;;;;;;;;;19.40;93.20;;;;;;5135540;27;20377;-42
2023/07/03 13:37:51;;;;;;;;;;;19.20;91.50;;;;;;5136430;27;19908;-41
2023/07/03 13:40:16;;;;;;;;;;;19.10;92.70;;;;;;5135216;27;19926;-44
2023/07/03 13:42:41;;;;;;;;;;;19.00;93.40;;;;;;5135977;27;19907;-40
2023/07/03 13:45:07;;;;;;;;;;;19.00;94.50;;;;;;5136046;27;19907;-41
2023/07/03 13:47:33;;;;;;;;;;;18.90;94.80;;;;;;5135558;27;19998;-42
2023/07/03 13:49:59;;;;;;;;;;;18.80;95.30;;;;;;5135923;27;19994;-40
2023/07/03 13:52:25;;;;;;;;;;;18.70;94.90;;;;;;5117710;27;20281;-40
2023/07/03 13:54:51;;;;;;;;;;;18.60;94.40;;;;;;5128648;27;19908;-40
2023/07/03 13:57:17;;;;;;;;;;;18.50;94.40;;;;;;5135988;27;19907;-40
2023/07/03 13:59:42;;;;;;;;;;;18.30;94.80;;;;;;5135689;27;19918;-41
2023/07/03 14:02:08;;;;;;;;;;;18.20;94.50;;;;;;5134302;27;19911;-41
2023/07/03 14:04:33;;;;;;;;;;;18.20;94.60;;;;;;5135508;27;19951;-40
2023/07/03 14:06:59;;;;;;;;;;;18.30;93.50;;;;;;5127197;27;19916;-41
2023/07/03 14:09:24;;;;;;;;;;;18.30;94.00;;;;;;5120510;27;19986;-42
2023/07/03 14:11:50;;;;;;;;;;;18.20;94.60;;;;;;5126399;27;19968;-40
2023/07/03 14:14:15;;;;;;;;;;;18.10;95.40;;;;;;5134951;27;19907;-41
2023/07/03 14:16:41;;;;;;;;;;;17.90;96.20;;;;;;5126011;27;19915;-41
2023/07/03 14:19:06;;;;;;;;;;;17.70;96.30;;;;;;5125687;27;19919;-41